sensor_id;sensor_type;location;lat;lon;timestamp;P1;durP1;ratioP1;P2;durP2;ratioP2
79047;SDS011;68680;50.764;6.120;2023-05-15T00:00:02;56.03;;;29.85;;
79047;SDS011;68680;50.764;6.120;2023-05-15T00:02:31;58.42;;;30.65;;
79047;SDS011;68680;50.764;6.120;2023-05-15T00:04:56;59.78;;;29.80;;
79047;SDS011;68680;50.764;6.120;2023-05-15T00:07:22;63.22;;;30.35;;
79047;SDS011;68680;50.764;6.120;2023-05-15T00:09:48;58.47;;;30.48;;
79047;SDS011;68680;50.764;6.120;2023-05-15T00:12:14;58.15;;;30.63;;
79047;SDS011;68680;50.764;6.120;2023-05-15T00:14:39;57.50;;;30.38;;
79047;SDS011;68680;50.764;6.120;2023-05-15T00:17:05;61.70;;;30.85;;
79047;SDS011;68680;50.764;6.120;2023-05-15T00:19:33;63.58;;;30.13;;
79047;SDS011;68680;50.764;6.120;2023-05-15T00:21:59;64.90;;;31.42;;
79047;SDS011;68680;50.764;6.120;2023-05-15T00:24:25;66.32;;;31.75;;
79047;SDS011;68680;50.764;6.120;2023-05-15T00:26:51;58.88;;;31.77;;
79047;SDS011;68680;50.764;6.120;2023-05-15T00:29:16;56.30;;;29.33;;
79047;SDS011;68680;50.764;6.120;2023-05-15T00:31:42;58.35;;;31.23;;
79047;SDS011;68680;50.764;6.120;2023-05-15T00:34:08;62.60;;;32.05;;
79047;SDS011;68680;50.764;6.120;2023-05-15T00:36:35;60.55;;;30.08;;
79047;SDS011;68680;50.764;6.120;2023-05-15T00:39:01;54.15;;;29.02;;
79047;SDS011;68680;50.764;6.120;2023-05-15T00:41:27;62.33;;;32.80;;
79047;SDS011;68680;50.764;6.120;2023-05-15T00:43:54;61.47;;;30.90;;
79047;SDS011;68680;50.764;6.120;2023-05-15T00:46:21;61.58;;;30.75;;
79047;SDS011;68680;50.764;6.120;2023-05-15T00:48:51;54.00;;;30.52;;
79047;SDS011;68680;50.764;6.120;2023-05-15T00:51:18;60.10;;;31.50;;
79047;SDS011;68680;50.764;6.120;2023-05-15T00:53:45;64.25;;;32.85;;
79047;SDS011;68680;50.764;6.120;2023-05-15T00:56:11;70.07;;;33.08;;
79047;SDS011;68680;50.764;6.120;2023-05-15T00:58:38;74.57;;;34.65;;
79047;SDS011;68680;50.764;6.120;2023-05-15T01:01:05;66.50;;;33.20;;
79047;SDS011;68680;50.764;6.120;2023-05-15T01:03:31;70.72;;;32.60;;
79047;SDS011;68680;50.764;6.120;2023-05-15T01:05:56;68.60;;;35.15;;
79047;SDS011;68680;50.764;6.120;2023-05-15T01:08:31;78.85;;;34.47;;
79047;SDS011;68680;50.764;6.120;2023-05-15T01:11:07;69.35;;;34.53;;
79047;SDS011;68680;50.764;6.120;2023-05-15T01:13:34;73.22;;;35.60;;
79047;SDS011;68680;50.764;6.120;2023-05-15T01:15:59;76.20;;;38.00;;
79047;SDS011;68680;50.764;6.120;2023-05-15T01:18:25;78.30;;;38.30;;
79047;SDS011;68680;50.764;6.120;2023-05-15T01:20:57;77.85;;;39.92;;
79047;SDS011;68680;50.764;6.120;2023-05-15T01:23:47;71.85;;;37.17;;
79047;SDS011;68680;50.764;6.120;2023-05-15T01:26:37;81.40;;;40.20;;
79047;SDS011;68680;50.764;6.120;2023-05-15T01:29:31;79.50;;;40.38;;
79047;SDS011;68680;50.764;6.120;2023-05-15T01:32:05;88.10;;;40.13;;
79047;SDS011;68680;50.764;6.120;2023-05-15T01:34:37;80.45;;;41.20;;
79047;SDS011;68680;50.764;6.120;2023-05-15T01:37:12;85.85;;;42.55;;
79047;SDS011;68680;50.764;6.120;2023-05-15T01:39:42;88.75;;;42.20;;
79047;SDS011;68680;50.764;6.120;2023-05-15T01:42:15;87.68;;;43.13;;
79047;SDS011;68680;50.764;6.120;2023-05-15T01:44:48;86.45;;;43.05;;
79047;SDS011;68680;50.764;6.120;2023-05-15T01:47:20;92.50;;;42.03;;
79047;SDS011;68680;50.764;6.120;2023-05-15T01:49:51;87.20;;;42.55;;
79047;SDS011;68680;50.764;6.120;2023-05-15T01:52:22;81.00;;;39.80;;
79047;SDS011;68680;50.764;6.120;2023-05-15T01:54:54;88.18;;;44.78;;
79047;SDS011;68680;50.764;6.120;2023-05-15T01:57:23;88.50;;;43.45;;
79047;SDS011;68680;50.764;6.120;2023-05-15T01:59:52;87.22;;;42.45;;
79047;SDS011;68680;50.764;6.120;2023-05-15T02:02:19;89.40;;;42.45;;
79047;SDS011;68680;50.764;6.120;2023-05-15T02:04:46;84.60;;;40.75;;
79047;SDS011;68680;50.764;6.120;2023-05-15T02:07:14;92.47;;;44.70;;
79047;SDS011;68680;50.764;6.120;2023-05-15T02:09:41;87.95;;;42.83;;
79047;SDS011;68680;50.764;6.120;2023-05-15T02:12:08;91.63;;;44.33;;
79047;SDS011;68680;50.764;6.120;2023-05-15T02:14:37;89.22;;;42.13;;
79047;SDS011;68680;50.764;6.120;2023-05-15T02:17:05;87.35;;;43.75;;
79047;SDS011;68680;50.764;6.120;2023-05-15T02:19:31;92.65;;;44.58;;
79047;SDS011;68680;50.764;6.120;2023-05-15T02:21:57;92.63;;;44.50;;
79047;SDS011;68680;50.764;6.120;2023-05-15T02:24:23;88.03;;;42.53;;
79047;SDS011;68680;50.764;6.120;2023-05-15T02:26:50;86.07;;;42.85;;
79047;SDS011;68680;50.764;6.120;2023-05-15T02:29:26;89.35;;;43.90;;
79047;SDS011;68680;50.764;6.120;2023-05-15T02:32:04;94.15;;;43.35;;
79047;SDS011;68680;50.764;6.120;2023-05-15T02:34:43;94.53;;;44.25;;
79047;SDS011;68680;50.764;6.120;2023-05-15T02:37:20;96.03;;;44.88;;
79047;SDS011;68680;50.764;6.120;2023-05-15T02:39:52;92.75;;;44.63;;
79047;SDS011;68680;50.764;6.120;2023-05-15T02:42:20;97.15;;;45.95;;
79047;SDS011;68680;50.764;6.120;2023-05-15T02:44:47;93.50;;;45.03;;
79047;SDS011;68680;50.764;6.120;2023-05-15T02:47:15;101.68;;;49.13;;
79047;SDS011;68680;50.764;6.120;2023-05-15T02:49:42;105.65;;;47.53;;
79047;SDS011;68680;50.764;6.120;2023-05-15T02:52:09;99.72;;;45.85;;
79047;SDS011;68680;50.764;6.120;2023-05-15T02:54:35;104.15;;;49.25;;
79047;SDS011;68680;50.764;6.120;2023-05-15T02:57:00;96.20;;;46.13;;
79047;SDS011;68680;50.764;6.120;2023-05-15T02:59:26;101.75;;;46.22;;
79047;SDS011;68680;50.764;6.120;2023-05-15T03:01:52;97.65;;;43.63;;
79047;SDS011;68680;50.764;6.120;2023-05-15T03:04:19;95.50;;;45.75;;
79047;SDS011;68680;50.764;6.120;2023-05-15T03:06:45;109.20;;;48.08;;
79047;SDS011;68680;50.764;6.120;2023-05-15T03:09:11;99.85;;;44.80;;
79047;SDS011;68680;50.764;6.120;2023-05-15T03:11:37;101.50;;;47.85;;
79047;SDS011;68680;50.764;6.120;2023-05-15T03:14:02;99.68;;;47.33;;
79047;SDS011;68680;50.764;6.120;2023-05-15T03:16:28;103.28;;;46.17;;
79047;SDS011;68680;50.764;6.120;2023-05-15T03:18:54;99.03;;;45.60;;
79047;SDS011;68680;50.764;6.120;2023-05-15T03:21:21;96.07;;;45.33;;
79047;SDS011;68680;50.764;6.120;2023-05-15T03:23:47;97.88;;;44.65;;
79047;SDS011;68680;50.764;6.120;2023-05-15T03:26:12;101.25;;;45.10;;
79047;SDS011;68680;50.764;6.120;2023-05-15T03:28:38;95.47;;;43.83;;
79047;SDS011;68680;50.764;6.120;2023-05-15T03:31:04;91.80;;;43.53;;
79047;SDS011;68680;50.764;6.120;2023-05-15T03:33:30;93.55;;;44.88;;
79047;SDS011;68680;50.764;6.120;2023-05-15T03:35:56;101.82;;;45.33;;
79047;SDS011;68680;50.764;6.120;2023-05-15T03:38:23;98.28;;;45.17;;
79047;SDS011;68680;50.764;6.120;2023-05-15T03:40:49;97.55;;;45.58;;
79047;SDS011;68680;50.764;6.120;2023-05-15T03:43:14;88.95;;;43.17;;
79047;SDS011;68680;50.764;6.120;2023-05-15T03:45:40;93.38;;;44.00;;
79047;SDS011;68680;50.764;6.120;2023-05-15T03:48:06;100.65;;;46.55;;
79047;SDS011;68680;50.764;6.120;2023-05-15T03:50:32;95.43;;;44.40;;
79047;SDS011;68680;50.764;6.120;2023-05-15T03:52:57;103.97;;;45.10;;
79047;SDS011;68680;50.764;6.120;2023-05-15T03:55:25;99.10;;;46.33;;
79047;SDS011;68680;50.764;6.120;2023-05-15T03:57:51;93.88;;;42.75;;
79047;SDS011;68680;50.764;6.120;2023-05-15T04:00:17;99.45;;;43.85;;
79047;SDS011;68680;50.764;6.120;2023-05-15T04:02:43;104.93;;;45.67;;
79047;SDS011;68680;50.764;6.120;2023-05-15T04:05:09;95.45;;;42.92;;
79047;SDS011;68680;50.764;6.120;2023-05-15T04:07:35;102.32;;;45.28;;
79047;SDS011;68680;50.764;6.120;2023-05-15T04:10:01;100.85;;;44.67;;
79047;SDS011;68680;50.764;6.120;2023-05-15T04:12:30;98.55;;;43.63;;
79047;SDS011;68680;50.764;6.120;2023-05-15T04:14:58;107.93;;;45.30;;
79047;SDS011;68680;50.764;6.120;2023-05-15T04:17:38;106.28;;;45.63;;
79047;SDS011;68680;50.764;6.120;2023-05-15T04:20:05;99.18;;;43.50;;
79047;SDS011;68680;50.764;6.120;2023-05-15T04:22:32;98.72;;;43.50;;
79047;SDS011;68680;50.764;6.120;2023-05-15T04:24:58;101.93;;;46.08;;
79047;SDS011;68680;50.764;6.120;2023-05-15T04:27:24;102.22;;;43.90;;
79047;SDS011;68680;50.764;6.120;2023-05-15T04:29:51;110.07;;;48.00;;
79047;SDS011;68680;50.764;6.120;2023-05-15T04:32:16;108.88;;;45.00;;
79047;SDS011;68680;50.764;6.120;2023-05-15T04:34:42;114.70;;;49.17;;
79047;SDS011;68680;50.764;6.120;2023-05-15T04:37:09;107.55;;;47.08;;
79047;SDS011;68680;50.764;6.120;2023-05-15T04:39:35;106.38;;;46.28;;
79047;SDS011;68680;50.764;6.120;2023-05-15T04:42:00;117.00;;;47.45;;
79047;SDS011;68680;50.764;6.120;2023-05-15T04:44:26;111.07;;;47.22;;
79047;SDS011;68680;50.764;6.120;2023-05-15T04:46:53;103.75;;;45.15;;
79047;SDS011;68680;50.764;6.120;2023-05-15T04:49:19;111.28;;;45.97;;
79047;SDS011;68680;50.764;6.120;2023-05-15T04:51:45;98.90;;;43.30;;
79047;SDS011;68680;50.764;6.120;2023-05-15T04:54:10;107.68;;;44.88;;
79047;SDS011;68680;50.764;6.120;2023-05-15T04:56:36;93.90;;;41.25;;
79047;SDS011;68680;50.764;6.120;2023-05-15T04:59:02;92.82;;;40.30;;
79047;SDS011;68680;50.764;6.120;2023-05-15T05:01:28;97.88;;;42.53;;
79047;SDS011;68680;50.764;6.120;2023-05-15T05:03:55;95.25;;;41.15;;
79047;SDS011;68680;50.764;6.120;2023-05-15T05:06:21;97.50;;;42.92;;
79047;SDS011;68680;50.764;6.120;2023-05-15T05:08:53;104.85;;;43.40;;
79047;SDS011;68680;50.764;6.120;2023-05-15T05:11:19;99.75;;;42.55;;
79047;SDS011;68680;50.764;6.120;2023-05-15T05:13:45;97.18;;;41.38;;
79047;SDS011;68680;50.764;6.120;2023-05-15T05:16:10;100.97;;;44.70;;
79047;SDS011;68680;50.764;6.120;2023-05-15T05:18:36;99.53;;;42.10;;
79047;SDS011;68680;50.764;6.120;2023-05-15T05:21:03;100.45;;;42.03;;
79047;SDS011;68680;50.764;6.120;2023-05-15T05:23:29;100.57;;;42.83;;
79047;SDS011;68680;50.764;6.120;2023-05-15T05:25:55;99.28;;;40.22;;
79047;SDS011;68680;50.764;6.120;2023-05-15T05:28:21;97.78;;;39.92;;
79047;SDS011;68680;50.764;6.120;2023-05-15T05:30:47;95.80;;;40.65;;
79047;SDS011;68680;50.764;6.120;2023-05-15T05:33:13;90.20;;;39.33;;
79047;SDS011;68680;50.764;6.120;2023-05-15T05:35:39;94.70;;;40.17;;
79047;SDS011;68680;50.764;6.120;2023-05-15T05:38:06;95.82;;;41.70;;
79047;SDS011;68680;50.764;6.120;2023-05-15T05:40:32;98.00;;;42.25;;
79047;SDS011;68680;50.764;6.120;2023-05-15T05:42:58;100.80;;;42.80;;
79047;SDS011;68680;50.764;6.120;2023-05-15T05:45:25;98.95;;;41.97;;
79047;SDS011;68680;50.764;6.120;2023-05-15T05:47:51;106.85;;;44.03;;
79047;SDS011;68680;50.764;6.120;2023-05-15T05:50:16;98.60;;;42.33;;
79047;SDS011;68680;50.764;6.120;2023-05-15T05:52:42;99.03;;;41.25;;
79047;SDS011;68680;50.764;6.120;2023-05-15T05:55:10;99.25;;;42.75;;
79047;SDS011;68680;50.764;6.120;2023-05-15T05:57:36;104.90;;;42.65;;
79047;SDS011;68680;50.764;6.120;2023-05-15T06:00:02;101.05;;;42.83;;
79047;SDS011;68680;50.764;6.120;2023-05-15T06:02:28;97.00;;;42.17;;
79047;SDS011;68680;50.764;6.120;2023-05-15T06:04:54;95.43;;;39.05;;
79047;SDS011;68680;50.764;6.120;2023-05-15T06:07:20;100.82;;;41.70;;
79047;SDS011;68680;50.764;6.120;2023-05-15T06:09:46;95.55;;;41.97;;
79047;SDS011;68680;50.764;6.120;2023-05-15T06:12:13;99.10;;;42.83;;
79047;SDS011;68680;50.764;6.120;2023-05-15T06:14:38;90.65;;;38.75;;
79047;SDS011;68680;50.764;6.120;2023-05-15T06:17:04;101.00;;;42.42;;
79047;SDS011;68680;50.764;6.120;2023-05-15T06:19:30;87.00;;;37.35;;
79047;SDS011;68680;50.764;6.120;2023-05-15T06:21:56;97.22;;;40.58;;
79047;SDS011;68680;50.764;6.120;2023-05-15T06:24:21;90.53;;;39.90;;
79047;SDS011;68680;50.764;6.120;2023-05-15T06:26:47;88.75;;;39.08;;
79047;SDS011;68680;50.764;6.120;2023-05-15T06:29:14;90.50;;;40.28;;
79047;SDS011;68680;50.764;6.120;2023-05-15T06:31:41;84.35;;;36.85;;
79047;SDS011;68680;50.764;6.120;2023-05-15T06:34:06;89.22;;;38.30;;
79047;SDS011;68680;50.764;6.120;2023-05-15T06:36:32;85.65;;;37.45;;
79047;SDS011;68680;50.764;6.120;2023-05-15T06:38:58;90.60;;;37.50;;
79047;SDS011;68680;50.764;6.120;2023-05-15T06:41:24;95.03;;;40.13;;
79047;SDS011;68680;50.764;6.120;2023-05-15T06:43:49;85.38;;;38.58;;
79047;SDS011;68680;50.764;6.120;2023-05-15T06:46:16;84.30;;;38.03;;
79047;SDS011;68680;50.764;6.120;2023-05-15T06:48:42;94.82;;;45.55;;
79047;SDS011;68680;50.764;6.120;2023-05-15T06:51:08;95.82;;;43.17;;
79047;SDS011;68680;50.764;6.120;2023-05-15T06:53:34;113.95;;;55.03;;
79047;SDS011;68680;50.764;6.120;2023-05-15T06:56:00;103.78;;;45.00;;
79047;SDS011;68680;50.764;6.120;2023-05-15T06:58:26;93.78;;;40.67;;
79047;SDS011;68680;50.764;6.120;2023-05-15T07:00:52;99.68;;;41.67;;
79047;SDS011;68680;50.764;6.120;2023-05-15T07:03:19;98.38;;;40.97;;
79047;SDS011;68680;50.764;6.120;2023-05-15T07:05:45;91.97;;;39.40;;
79047;SDS011;68680;50.764;6.120;2023-05-15T07:08:11;94.75;;;40.70;;
79047;SDS011;68680;50.764;6.120;2023-05-15T07:10:37;87.53;;;38.25;;
79047;SDS011;68680;50.764;6.120;2023-05-15T07:13:02;85.85;;;36.53;;
79047;SDS011;68680;50.764;6.120;2023-05-15T07:15:28;77.25;;;33.70;;
79047;SDS011;68680;50.764;6.120;2023-05-15T07:17:54;74.20;;;33.15;;
79047;SDS011;68680;50.764;6.120;2023-05-15T07:20:21;82.25;;;35.45;;
79047;SDS011;68680;50.764;6.120;2023-05-15T07:22:47;71.13;;;31.90;;
79047;SDS011;68680;50.764;6.120;2023-05-15T07:25:12;66.70;;;32.00;;
79047;SDS011;68680;50.764;6.120;2023-05-15T07:27:38;68.28;;;31.00;;
79047;SDS011;68680;50.764;6.120;2023-05-15T07:30:04;68.88;;;31.08;;
79047;SDS011;68680;50.764;6.120;2023-05-15T07:32:32;64.00;;;30.42;;
79047;SDS011;68680;50.764;6.120;2023-05-15T07:34:57;61.38;;;29.05;;
79047;SDS011;68680;50.764;6.120;2023-05-15T07:37:24;53.90;;;26.55;;
79047;SDS011;68680;50.764;6.120;2023-05-15T07:39:50;62.40;;;29.05;;
79047;SDS011;68680;50.764;6.120;2023-05-15T07:42:16;71.10;;;32.58;;
79047;SDS011;68680;50.764;6.120;2023-05-15T07:44:42;60.90;;;30.58;;
79047;SDS011;68680;50.764;6.120;2023-05-15T07:47:07;51.00;;;26.60;;
79047;SDS011;68680;50.764;6.120;2023-05-15T07:49:33;53.55;;;27.48;;
79047;SDS011;68680;50.764;6.120;2023-05-15T07:51:59;56.70;;;28.08;;
79047;SDS011;68680;50.764;6.120;2023-05-15T07:54:26;50.67;;;25.27;;
79047;SDS011;68680;50.764;6.120;2023-05-15T07:56:52;52.22;;;25.33;;
79047;SDS011;68680;50.764;6.120;2023-05-15T07:59:18;54.33;;;26.88;;
79047;SDS011;68680;50.764;6.120;2023-05-15T08:01:43;57.00;;;28.05;;
79047;SDS011;68680;50.764;6.120;2023-05-15T08:04:10;52.08;;;24.83;;
79047;SDS011;68680;50.764;6.120;2023-05-15T08:06:36;46.50;;;24.40;;
79047;SDS011;68680;50.764;6.120;2023-05-15T08:09:02;47.58;;;24.88;;
79047;SDS011;68680;50.764;6.120;2023-05-15T08:11:29;44.40;;;21.75;;
79047;SDS011;68680;50.764;6.120;2023-05-15T08:13:55;44.35;;;22.50;;
79047;SDS011;68680;50.764;6.120;2023-05-15T08:16:20;46.58;;;24.50;;
79047;SDS011;68680;50.764;6.120;2023-05-15T08:18:46;49.83;;;25.33;;
79047;SDS011;68680;50.764;6.120;2023-05-15T08:21:12;58.17;;;30.13;;
79047;SDS011;68680;50.764;6.120;2023-05-15T08:23:38;47.88;;;25.30;;
79047;SDS011;68680;50.764;6.120;2023-05-15T08:26:03;52.03;;;24.85;;
79047;SDS011;68680;50.764;6.120;2023-05-15T08:28:30;40.72;;;21.55;;
79047;SDS011;68680;50.764;6.120;2023-05-15T08:30:57;52.08;;;24.45;;
79047;SDS011;68680;50.764;6.120;2023-05-15T08:33:22;46.85;;;25.13;;
79047;SDS011;68680;50.764;6.120;2023-05-15T08:35:48;53.10;;;24.33;;
79047;SDS011;68680;50.764;6.120;2023-05-15T08:38:14;48.75;;;24.10;;
79047;SDS011;68680;50.764;6.120;2023-05-15T08:40:40;44.53;;;22.95;;
79047;SDS011;68680;50.764;6.120;2023-05-15T08:43:11;49.67;;;24.33;;
79047;SDS011;68680;50.764;6.120;2023-05-15T08:45:41;52.83;;;23.25;;
79047;SDS011;68680;50.764;6.120;2023-05-15T08:48:08;40.10;;;20.85;;
79047;SDS011;68680;50.764;6.120;2023-05-15T08:50:37;41.97;;;22.15;;
79047;SDS011;68680;50.764;6.120;2023-05-15T08:53:05;41.60;;;20.98;;
79047;SDS011;68680;50.764;6.120;2023-05-15T08:55:32;39.40;;;20.80;;
79047;SDS011;68680;50.764;6.120;2023-05-15T08:57:58;29.70;;;17.17;;
79047;SDS011;68680;50.764;6.120;2023-05-15T09:00:24;38.45;;;20.73;;
79047;SDS011;68680;50.764;6.120;2023-05-15T09:02:52;40.17;;;20.83;;
79047;SDS011;68680;50.764;6.120;2023-05-15T09:05:18;37.72;;;20.52;;
79047;SDS011;68680;50.764;6.120;2023-05-15T09:07:44;36.47;;;19.05;;
79047;SDS011;68680;50.764;6.120;2023-05-15T09:10:12;33.05;;;18.25;;
79047;SDS011;68680;50.764;6.120;2023-05-15T09:12:40;40.20;;;20.10;;
79047;SDS011;68680;50.764;6.120;2023-05-15T09:15:09;35.88;;;18.85;;
79047;SDS011;68680;50.764;6.120;2023-05-15T09:17:37;36.75;;;19.15;;
79047;SDS011;68680;50.764;6.120;2023-05-15T09:20:05;45.65;;;24.27;;
79047;SDS011;68680;50.764;6.120;2023-05-15T09:22:47;41.28;;;22.35;;
79047;SDS011;68680;50.764;6.120;2023-05-15T09:25:13;38.30;;;21.48;;
79047;SDS011;68680;50.764;6.120;2023-05-15T09:28:00;37.50;;;21.30;;
79047;SDS011;68680;50.764;6.120;2023-05-15T09:30:26;40.42;;;20.17;;
79047;SDS011;68680;50.764;6.120;2023-05-15T09:32:52;34.92;;;18.17;;
79047;SDS011;68680;50.764;6.120;2023-05-15T09:35:28;34.55;;;18.35;;
79047;SDS011;68680;50.764;6.120;2023-05-15T09:37:58;28.13;;;17.77;;
79047;SDS011;68680;50.764;6.120;2023-05-15T09:40:27;36.78;;;18.30;;
79047;SDS011;68680;50.764;6.120;2023-05-15T09:42:54;33.35;;;18.02;;
79047;SDS011;68680;50.764;6.120;2023-05-15T09:45:20;37.80;;;20.63;;
79047;SDS011;68680;50.764;6.120;2023-05-15T09:47:46;36.13;;;19.60;;
79047;SDS011;68680;50.764;6.120;2023-05-15T09:50:12;38.63;;;20.98;;
79047;SDS011;68680;50.764;6.120;2023-05-15T09:52:46;33.58;;;17.98;;
79047;SDS011;68680;50.764;6.120;2023-05-15T09:55:13;32.75;;;18.15;;
79047;SDS011;68680;50.764;6.120;2023-05-15T09:57:40;34.10;;;17.88;;
79047;SDS011;68680;50.764;6.120;2023-05-15T10:00:07;33.45;;;19.77;;
79047;SDS011;68680;50.764;6.120;2023-05-15T10:02:34;38.10;;;20.73;;
79047;SDS011;68680;50.764;6.120;2023-05-15T10:05:03;37.45;;;19.95;;
79047;SDS011;68680;50.764;6.120;2023-05-15T10:07:29;35.22;;;19.17;;
79047;SDS011;68680;50.764;6.120;2023-05-15T10:09:58;30.85;;;17.55;;
79047;SDS011;68680;50.764;6.120;2023-05-15T10:12:26;31.85;;;16.65;;
79047;SDS011;68680;50.764;6.120;2023-05-15T10:14:53;34.75;;;18.08;;
79047;SDS011;68680;50.764;6.120;2023-05-15T10:17:21;110.70;;;24.95;;
79047;SDS011;68680;50.764;6.120;2023-05-15T10:19:47;69.60;;;19.88;;
79047;SDS011;68680;50.764;6.120;2023-05-15T10:22:15;30.98;;;17.13;;
79047;SDS011;68680;50.764;6.120;2023-05-15T10:27:18;29.98;;;16.95;;
79047;SDS011;68680;50.764;6.120;2023-05-15T10:29:45;35.55;;;18.25;;
79047;SDS011;68680;50.764;6.120;2023-05-15T10:32:13;51.72;;;17.60;;
79047;SDS011;68680;50.764;6.120;2023-05-15T10:34:41;48.85;;;17.60;;
79047;SDS011;68680;50.764;6.120;2023-05-15T10:37:08;53.38;;;21.35;;
79047;SDS011;68680;50.764;6.120;2023-05-15T10:39:36;35.33;;;19.67;;
79047;SDS011;68680;50.764;6.120;2023-05-15T10:42:04;36.90;;;18.35;;
79047;SDS011;68680;50.764;6.120;2023-05-15T10:44:33;26.92;;;15.52;;
79047;SDS011;68680;50.764;6.120;2023-05-15T10:46:58;31.42;;;16.33;;
79047;SDS011;68680;50.764;6.120;2023-05-15T10:49:26;28.48;;;15.23;;
79047;SDS011;68680;50.764;6.120;2023-05-15T10:51:52;34.95;;;17.42;;
79047;SDS011;68680;50.764;6.120;2023-05-15T10:54:18;28.90;;;17.02;;
79047;SDS011;68680;50.764;6.120;2023-05-15T10:56:46;33.15;;;18.00;;
79047;SDS011;68680;50.764;6.120;2023-05-15T10:59:12;35.83;;;18.58;;
79047;SDS011;68680;50.764;6.120;2023-05-15T11:01:39;31.48;;;17.30;;
79047;SDS011;68680;50.764;6.120;2023-05-15T11:04:06;29.42;;;18.10;;
79047;SDS011;68680;50.764;6.120;2023-05-15T11:06:35;37.67;;;19.98;;
79047;SDS011;68680;50.764;6.120;2023-05-15T11:12:03;34.85;;;19.05;;
79047;SDS011;68680;50.764;6.120;2023-05-15T11:14:32;32.42;;;18.38;;
79047;SDS011;68680;50.764;6.120;2023-05-15T11:17:02;35.60;;;18.13;;
79047;SDS011;68680;50.764;6.120;2023-05-15T11:19:31;30.33;;;19.45;;
79047;SDS011;68680;50.764;6.120;2023-05-15T11:22:14;34.28;;;19.55;;
79047;SDS011;68680;50.764;6.120;2023-05-15T11:24:49;35.40;;;19.70;;
79047;SDS011;68680;50.764;6.120;2023-05-15T11:27:18;38.03;;;21.50;;
79047;SDS011;68680;50.764;6.120;2023-05-15T11:30:05;44.80;;;22.52;;
79047;SDS011;68680;50.764;6.120;2023-05-15T11:35:25;39.90;;;21.98;;
79047;SDS011;68680;50.764;6.120;2023-05-15T11:37:54;34.90;;;21.00;;
79047;SDS011;68680;50.764;6.120;2023-05-15T11:40:22;34.03;;;20.90;;
79047;SDS011;68680;50.764;6.120;2023-05-15T11:42:59;38.47;;;23.23;;
79047;SDS011;68680;50.764;6.120;2023-05-15T11:45:31;37.13;;;21.90;;
79047;SDS011;68680;50.764;6.120;2023-05-15T11:48:01;34.83;;;20.92;;
79047;SDS011;68680;50.764;6.120;2023-05-15T11:50:30;38.05;;;22.35;;
79047;SDS011;68680;50.764;6.120;2023-05-15T11:52:57;34.95;;;20.70;;
79047;SDS011;68680;50.764;6.120;2023-05-15T11:55:26;35.20;;;20.52;;
79047;SDS011;68680;50.764;6.120;2023-05-15T11:57:54;34.97;;;20.25;;
79047;SDS011;68680;50.764;6.120;2023-05-15T12:00:20;31.35;;;20.58;;
79047;SDS011;68680;50.764;6.120;2023-05-15T12:02:46;35.45;;;21.23;;
79047;SDS011;68680;50.764;6.120;2023-05-15T12:05:13;37.67;;;22.23;;
79047;SDS011;68680;50.764;6.120;2023-05-15T12:07:39;36.45;;;22.10;;
79047;SDS011;68680;50.764;6.120;2023-05-15T12:10:08;40.42;;;24.45;;
79047;SDS011;68680;50.764;6.120;2023-05-15T12:12:35;34.40;;;20.98;;
79047;SDS011;68680;50.764;6.120;2023-05-15T12:15:03;38.20;;;22.98;;
79047;SDS011;68680;50.764;6.120;2023-05-15T12:17:32;49.22;;;25.05;;
79047;SDS011;68680;50.764;6.120;2023-05-15T12:19:58;48.20;;;25.35;;
79047;SDS011;68680;50.764;6.120;2023-05-15T12:22:26;43.03;;;24.77;;
79047;SDS011;68680;50.764;6.120;2023-05-15T12:24:51;40.17;;;23.38;;
79047;SDS011;68680;50.764;6.120;2023-05-15T12:27:17;40.00;;;24.23;;
79047;SDS011;68680;50.764;6.120;2023-05-15T12:29:43;39.95;;;24.20;;
79047;SDS011;68680;50.764;6.120;2023-05-15T12:32:09;36.70;;;22.25;;
79047;SDS011;68680;50.764;6.120;2023-05-15T12:34:36;41.40;;;23.55;;
79047;SDS011;68680;50.764;6.120;2023-05-15T12:37:01;40.97;;;24.10;;
79047;SDS011;68680;50.764;6.120;2023-05-15T12:39:29;40.45;;;23.92;;
79047;SDS011;68680;50.764;6.120;2023-05-15T12:41:56;39.58;;;24.08;;
79047;SDS011;68680;50.764;6.120;2023-05-15T12:44:22;34.40;;;22.33;;
79047;SDS011;68680;50.764;6.120;2023-05-15T12:46:49;34.42;;;21.02;;
79047;SDS011;68680;50.764;6.120;2023-05-15T12:49:21;35.17;;;19.38;;
79047;SDS011;68680;50.764;6.120;2023-05-15T12:51:47;33.15;;;22.27;;
79047;SDS011;68680;50.764;6.120;2023-05-15T12:54:16;34.17;;;21.95;;
79047;SDS011;68680;50.764;6.120;2023-05-15T12:56:44;36.77;;;22.13;;
79047;SDS011;68680;50.764;6.120;2023-05-15T12:59:11;38.00;;;21.40;;
79047;SDS011;68680;50.764;6.120;2023-05-15T13:01:38;36.13;;;21.38;;
79047;SDS011;68680;50.764;6.120;2023-05-15T13:04:05;32.03;;;19.83;;
79047;SDS011;68680;50.764;6.120;2023-05-15T13:06:31;35.38;;;20.67;;
79047;SDS011;68680;50.764;6.120;2023-05-15T13:08:57;32.10;;;21.02;;
79047;SDS011;68680;50.764;6.120;2023-05-15T13:11:23;32.53;;;22.77;;
79047;SDS011;68680;50.764;6.120;2023-05-15T13:13:56;36.83;;;22.95;;
79047;SDS011;68680;50.764;6.120;2023-05-15T13:16:23;41.63;;;23.55;;
79047;SDS011;68680;50.764;6.120;2023-05-15T13:18:51;42.13;;;23.77;;
79047;SDS011;68680;50.764;6.120;2023-05-15T13:21:17;40.20;;;24.17;;
79047;SDS011;68680;50.764;6.120;2023-05-15T13:23:43;40.42;;;25.27;;
79047;SDS011;68680;50.764;6.120;2023-05-15T13:26:09;42.60;;;24.77;;
79047;SDS011;68680;50.764;6.120;2023-05-15T13:28:34;36.78;;;23.83;;
79047;SDS011;68680;50.764;6.120;2023-05-15T13:31:02;45.97;;;24.90;;
79047;SDS011;68680;50.764;6.120;2023-05-15T13:33:27;40.63;;;25.17;;
79047;SDS011;68680;50.764;6.120;2023-05-15T13:35:53;45.67;;;25.20;;
79047;SDS011;68680;50.764;6.120;2023-05-15T13:38:19;47.08;;;26.83;;
79047;SDS011;68680;50.764;6.120;2023-05-15T13:40:45;40.67;;;23.50;;
79047;SDS011;68680;50.764;6.120;2023-05-15T13:43:10;41.65;;;25.17;;
79047;SDS011;68680;50.764;6.120;2023-05-15T13:45:36;48.03;;;25.60;;
79047;SDS011;68680;50.764;6.120;2023-05-15T13:48:03;42.97;;;23.73;;
79047;SDS011;68680;50.764;6.120;2023-05-15T13:50:29;42.55;;;24.48;;
79047;SDS011;68680;50.764;6.120;2023-05-15T13:52:55;42.67;;;24.48;;
79047;SDS011;68680;50.764;6.120;2023-05-15T13:55:21;38.05;;;22.88;;
79047;SDS011;68680;50.764;6.120;2023-05-15T13:57:47;35.70;;;21.67;;
79047;SDS011;68680;50.764;6.120;2023-05-15T14:00:13;39.67;;;22.00;;
79047;SDS011;68680;50.764;6.120;2023-05-15T14:02:40;36.42;;;20.63;;
79047;SDS011;68680;50.764;6.120;2023-05-15T14:05:09;43.85;;;22.83;;
79047;SDS011;68680;50.764;6.120;2023-05-15T14:07:37;31.77;;;20.30;;
79047;SDS011;68680;50.764;6.120;2023-05-15T14:10:03;29.98;;;19.38;;
79047;SDS011;68680;50.764;6.120;2023-05-15T14:12:30;30.13;;;18.73;;
79047;SDS011;68680;50.764;6.120;2023-05-15T14:14:56;25.58;;;17.20;;
79047;SDS011;68680;50.764;6.120;2023-05-15T14:17:23;28.13;;;17.95;;
79047;SDS011;68680;50.764;6.120;2023-05-15T14:19:49;19.92;;;13.82;;
79047;SDS011;68680;50.764;6.120;2023-05-15T14:22:17;20.80;;;13.70;;
79047;SDS011;68680;50.764;6.120;2023-05-15T14:24:42;22.98;;;15.57;;
79047;SDS011;68680;50.764;6.120;2023-05-15T14:27:08;26.13;;;16.55;;
79047;SDS011;68680;50.764;6.120;2023-05-15T14:29:34;27.75;;;18.00;;